createdAt,value
2022-08-28T00:02:25.013Z,97111.03
2022-08-28T00:07:28.378Z,97109.09
2022-08-28T00:12:32.462Z,97109.44
2022-08-28T00:17:38.406Z,97112.47
2022-08-28T00:22:53.702Z,97106.84
2022-08-28T00:27:59.806Z,97101.22
2022-08-28T00:33:35.166Z,97103.31
2022-08-28T00:38:38.723Z,97101.53
2022-08-28T00:43:48.216Z,97111.38
2022-08-28T00:48:52.416Z,97104.59
2022-08-28T00:54:07.715Z,97109.28
2022-08-28T00:59:15.178Z,97107.69
2022-08-28T01:04:21.549Z,97102.03
2022-08-28T01:09:29.593Z,97099.09
2022-08-28T01:14:35.845Z,97097.19
2022-08-28T01:20:02.490Z,97108.28
2022-08-28T01:25:17.058Z,97094.94
2022-08-28T01:30:23.310Z,97101.56
2022-08-28T01:35:41.087Z,97094.16
2022-08-28T01:40:47.103Z,97090.16
2022-08-28T01:45:56.153Z,97111.22
2022-08-28T01:50:59.662Z,97113.44
2022-08-28T01:56:08.321Z,97101.38
2022-08-28T02:01:16.632Z,97107.97
2022-08-28T02:06:21.163Z,97105.56
2022-08-28T02:11:25.249Z,97111.84
2022-08-28T02:16:30.162Z,97099.78
2022-08-28T02:21:33.515Z,97113.44
2022-08-28T02:26:36.730Z,97115.25
2022-08-28T02:31:40.947Z,97110.06
2022-08-28T02:36:44.537Z,97116.84
2022-08-28T02:41:48.147Z,97111.19
2022-08-28T02:46:51.761Z,97104.13
2022-08-28T02:51:58.665Z,97118.75
2022-08-28T02:57:02.944Z,97113.78
2022-08-28T03:02:07.311Z,97121.16
2022-08-28T03:07:11.144Z,97096.75
2022-08-28T03:12:15.254Z,97110.22
2022-08-28T03:17:19.406Z,97116.50
2022-08-28T03:22:22.890Z,97105.72
2022-08-28T03:27:26.090Z,97105.41
2022-08-28T03:32:30.013Z,97114.56
2022-08-28T03:37:34.146Z,97097.06
2022-08-28T03:42:37.414Z,97117.44
2022-08-28T03:47:43.152Z,97132.75
2022-08-28T03:52:46.820Z,97126.16
2022-08-28T03:57:50.756Z,97132.75
2022-08-28T04:02:54.201Z,97135.78
2022-08-28T04:07:57.644Z,97149.94
2022-08-28T04:13:01.360Z,97159.09
2022-08-28T04:18:04.797Z,97163.47
2022-08-28T04:23:08.113Z,97167.16
2022-08-28T04:28:11.984Z,97186.91
2022-08-28T04:33:16.296Z,97192.75
2022-08-28T04:38:21.425Z,97195.47
2022-08-28T04:43:24.994Z,97202.88
2022-08-28T04:48:28.766Z,97207.72
2022-08-28T04:53:33.257Z,97207.25
2022-08-28T04:58:38.545Z,97219.63
2022-08-28T05:03:42.341Z,97222.50
2022-08-28T05:08:45.697Z,97217.50
2022-08-28T05:13:51.101Z,97227.94
2022-08-28T05:19:03.058Z,97210.53
2022-08-28T05:24:07.502Z,97203.44
2022-08-28T05:29:11.957Z,97189.97
2022-08-28T05:34:17.034Z,97207.38
2022-08-28T05:39:21.149Z,97190.13
2022-08-28T05:44:24.515Z,97189.50
2022-08-28T05:49:31.834Z,97206.53
2022-08-28T05:54:35.270Z,97204.09
2022-08-28T05:59:39.362Z,97203.09
2022-08-28T06:04:42.715Z,97210.44
2022-08-28T06:09:46.304Z,97205.09
2022-08-28T06:14:52.283Z,97210.03
2022-08-28T06:19:58.507Z,97221.91
2022-08-28T06:25:07.471Z,97205.78
2022-08-28T06:30:11.646Z,97194.34
2022-08-28T06:35:15.056Z,97195.03
2022-08-28T06:40:24.164Z,97212.19
2022-08-28T06:45:44.725Z,97200.13
2022-08-28T06:50:50.659Z,97199.66
2022-08-28T06:56:03.125Z,97192.09
2022-08-28T07:01:10.985Z,97205.38
2022-08-28T07:06:18.414Z,97214.22
2022-08-28T07:11:30.645Z,97207.78
2022-08-28T07:16:36.970Z,97205.47
2022-08-28T07:21:43.286Z,97201.84
2022-08-28T07:26:48.021Z,97204.91
2022-08-28T07:31:54.232Z,97211.13
2022-08-28T07:36:57.672Z,97202.03
2022-08-28T07:42:02.642Z,97202.69
2022-08-28T07:47:08.799Z,97211.88
2022-08-28T07:52:13.466Z,97219.09
2022-08-28T07:57:16.998Z,97209.72
2022-08-28T08:02:20.947Z,97209.94
2022-08-28T08:07:25.754Z,97215.13
2022-08-28T08:12:49.933Z,97211.84
2022-08-28T08:17:56.127Z,97224.16
2022-08-28T08:22:59.330Z,97232.56
2022-08-28T08:28:02.946Z,97238.88
2022-08-28T08:33:06.363Z,97237.81
2022-08-28T08:38:09.643Z,97224.91
2022-08-28T08:43:18.299Z,97222.28
2022-08-28T08:48:32.204Z,97218.91
2022-08-28T08:53:51.481Z,97204.34
2022-08-28T08:58:56.020Z,97194.13
2022-08-28T09:04:08.860Z,97211.94
2022-08-28T09:09:35.486Z,97203.31
2022-08-28T09:15:01.428Z,97200.47
2022-08-28T09:20:08.462Z,97188.13
2022-08-28T09:25:32.760Z,97197.25
2022-08-28T09:30:37.497Z,97179.19
2022-08-28T09:35:41.511Z,97180.38
2022-08-28T09:40:45.545Z,97183.06
2022-08-28T09:46:24.550Z,97153.00
2022-08-28T09:51:30.171Z,97158.75
2022-08-28T09:56:36.167Z,97173.56
2022-08-28T10:01:43.406Z,97174.16
2022-08-28T10:07:16.502Z,97173.28
2022-08-28T10:12:38.825Z,97166.19
2022-08-28T10:17:56.388Z,97158.97
2022-08-28T10:23:23.963Z,97157.41
2022-08-28T10:28:42.919Z,97152.16
2022-08-28T10:33:49.166Z,97140.78
2022-08-28T10:39:32.254Z,97137.75
2022-08-28T10:44:48.669Z,97139.59
2022-08-28T10:49:55.719Z,97136.59
2022-08-28T10:55:13.211Z,97132.84
2022-08-28T11:00:22.958Z,97125.41
2022-08-28T11:05:33.061Z,97128.69
2022-08-28T11:10:39.893Z,97134.78
2022-08-28T11:15:51.550Z,97124.69
2022-08-28T11:21:14.973Z,97111.09
2022-08-28T11:26:56.557Z,97086.84
2022-08-28T11:32:32.005Z,97098.16
2022-08-28T11:37:40.244Z,97099.91
2022-08-28T11:42:43.741Z,97084.59
2022-08-28T11:47:52.945Z,97082.63
2022-08-28T11:53:37.613Z,97078.53
2022-08-28T11:58:56.905Z,97082.16
2022-08-28T12:04:10.021Z,97073.91
2022-08-28T12:09:43.811Z,97071.41
2022-08-28T12:15:00.200Z,97074.63
2022-08-28T12:20:25.419Z,97066.81
2022-08-28T12:25:34.954Z,97076.00
2022-08-28T12:30:48.219Z,97079.53
2022-08-28T12:36:01.020Z,97078.31
2022-08-28T12:41:04.612Z,97066.03
2022-08-28T12:46:19.024Z,97068.94
2022-08-28T12:51:26.155Z,97069.03
2022-08-28T12:56:33.550Z,97074.97
2022-08-28T13:01:37.143Z,97062.28
2022-08-28T13:06:41.269Z,97078.09
2022-08-28T13:11:47.836Z,97066.41
2022-08-28T13:16:54.559Z,97073.84
2022-08-28T13:22:01.601Z,97078.41
2022-08-28T13:27:26.127Z,97071.19
2022-08-28T13:32:33.868Z,97074.59
2022-08-28T13:37:45.418Z,97069.00
2022-08-28T13:42:49.184Z,97073.66
2022-08-28T13:47:58.310Z,97071.97
2022-08-28T13:53:02.600Z,97077.53
2022-08-28T13:58:07.621Z,97072.03
2022-08-28T14:03:11.642Z,97067.91
2022-08-28T14:08:15.199Z,97067.03
2022-08-28T14:13:19.347Z,97062.75
2022-08-28T14:18:27.366Z,97064.91
2022-08-28T14:23:31.474Z,97062.50
2022-08-28T14:28:34.840Z,97055.03
2022-08-28T14:33:38.153Z,97063.69
2022-08-28T14:38:41.646Z,97056.47
2022-08-28T14:43:45.405Z,97058.81
2022-08-28T14:48:49.806Z,97049.72
2022-08-28T14:53:56.146Z,97044.66
2022-08-28T14:59:00.997Z,97051.97
2022-08-28T15:04:07.113Z,97051.00
2022-08-28T15:09:12.969Z,97040.94
2022-08-28T15:14:16.705Z,97037.56
2022-08-28T15:19:20.209Z,97033.41
2022-08-28T15:24:28.156Z,97034.22
2022-08-28T15:29:31.698Z,97027.78
2022-08-28T15:34:35.545Z,97028.81
2022-08-28T15:39:39.719Z,97039.34
2022-08-28T15:44:43.492Z,97035.03
2022-08-28T15:49:53.394Z,97040.47
2022-08-28T15:54:58.942Z,97036.78
2022-08-28T16:00:04.170Z,97035.81
2022-08-28T16:05:10.385Z,97036.31
2022-08-28T16:10:13.900Z,97044.41
2022-08-28T16:15:21.235Z,97041.97
2022-08-28T16:20:25.410Z,97041.34
2022-08-28T16:25:28.938Z,97052.28
2022-08-28T16:30:34.122Z,97053.31
2022-08-28T16:35:54.808Z,97060.56
2022-08-28T16:41:24.845Z,97061.53
2022-08-28T16:46:31.710Z,97064.47
2022-08-28T16:51:35.762Z,97061.25
2022-08-28T16:56:39.177Z,97070.56
2022-08-28T17:01:42.917Z,97071.25
2022-08-28T17:06:55.844Z,97076.38
2022-08-28T17:12:09.651Z,97078.66
2022-08-28T17:17:14.792Z,97079.75
2022-08-28T17:22:18.436Z,97078.16
2022-08-28T17:27:26.090Z,97085.22
2022-08-28T17:32:29.586Z,97088.75
2022-08-28T17:37:37.605Z,97089.09
2022-08-28T17:42:44.350Z,97092.97
2022-08-28T17:47:48.772Z,97097.31
2022-08-28T17:52:54.353Z,97101.34
2022-08-28T17:58:03.912Z,97099.06
2022-08-28T18:03:07.425Z,97096.97
2022-08-28T18:08:11.154Z,97102.44
2022-08-28T18:13:14.868Z,97105.50
2022-08-28T18:18:18.729Z,97116.78
2022-08-28T18:23:24.938Z,97118.06
2022-08-28T18:28:28.542Z,97116.47
2022-08-28T18:33:32.299Z,97123.06
2022-08-28T18:38:36.100Z,97130.47
2022-08-28T18:43:39.975Z,97137.88
2022-08-28T18:48:43.589Z,97150.75
2022-08-28T18:53:47.369Z,97158.00
2022-08-28T18:58:54.203Z,97159.72
2022-08-28T19:04:04.894Z,97172.44
2022-08-28T19:09:08.651Z,97175.81
2022-08-28T19:14:17.642Z,97179.19
2022-08-28T19:19:21.995Z,97190.28
2022-08-28T19:24:30.243Z,97198.31
2022-08-28T19:29:37.494Z,97207.16
2022-08-28T19:34:43.365Z,97210.69
2022-08-28T19:39:56.265Z,97203.81
2022-08-28T19:45:03.367Z,97197.47
2022-08-28T19:50:09.991Z,97203.47
2022-08-28T19:55:23.655Z,97201.53
2022-08-28T20:00:28.741Z,97213.63
2022-08-28T20:05:31.902Z,97208.75
2022-08-28T20:10:41.195Z,97209.56
2022-08-28T20:15:46.636Z,97217.31
2022-08-28T20:20:52.021Z,97224.72
2022-08-28T20:25:55.445Z,97217.31
2022-08-28T20:30:59.375Z,97218.09
2022-08-28T20:36:06.276Z,97218.44
2022-08-28T20:41:17.848Z,97216.16
2022-08-28T20:46:23.876Z,97205.88
2022-08-28T20:51:27.526Z,97217.13
2022-08-28T20:56:30.870Z,97210.56
2022-08-28T21:01:37.384Z,97209.00
2022-08-28T21:06:41.164Z,97215.25
2022-08-28T21:11:48.629Z,97207.06
2022-08-28T21:16:52.155Z,97230.56
2022-08-28T21:21:55.988Z,97230.72
2022-08-28T21:26:59.669Z,97222.03
2022-08-28T21:32:03.970Z,97234.56
2022-08-28T21:37:11.261Z,97232.78
2022-08-28T21:42:14.842Z,97237.28
2022-08-28T21:47:19.331Z,97243.09
2022-08-28T21:52:25.920Z,97243.88
2022-08-28T21:57:30.311Z,97228.91
2022-08-28T22:02:33.871Z,97238.41
2022-08-28T22:07:37.693Z,97232.94
2022-08-28T22:12:41.118Z,97243.56
2022-08-28T22:17:44.527Z,97236.16
2022-08-28T22:22:47.854Z,97247.28
2022-08-28T22:27:52.629Z,97238.78
2022-08-28T22:33:03.954Z,97238.44
2022-08-28T22:38:13.166Z,97240.06
2022-08-28T22:43:18.667Z,97245.06
2022-08-28T22:48:22.820Z,97248.59
2022-08-28T22:53:30.947Z,97243.13
2022-08-28T22:58:34.910Z,97249.88
2022-08-28T23:03:39.420Z,97264.00
2022-08-28T23:08:43.562Z,97258.25
2022-08-28T23:13:47.306Z,97261.78
2022-08-28T23:19:08.664Z,97261.78
2022-08-28T23:24:14.259Z,97265.16
2022-08-28T23:29:18.894Z,97277.22
2022-08-28T23:34:22.206Z,97279.50
2022-08-28T23:39:27.811Z,97284.97
2022-08-28T23:44:31.349Z,97293.50
2022-08-28T23:49:41.513Z,97291.56
2022-08-28T23:54:46.331Z,97286.91
2022-08-28T23:59:50.294Z,97294.31
